64FD weather

St Marys Hospital Heliport
West Palm Beach, Florida, United States

Public forecast

Using degrees Fahrenheit for public forecast. Weather courtesy of forecast.io.

METAR (pilot weather report)

Closest report is Palm Beach International Airport, 4.8 nm (8.9 km) SSW. Retrieved 2019/06/25 14:53 UTC (46 minutes ago):

KPBI 251453Z 31004KT 7SM SCT020 SCT035 32/23 A3006 RMK AO2 SLP179 FU SCT020 T03220228 50003 $

TAF (pilot weather forecast)

Closest forecast is Palm Beach International Airport, 4.8 nm (8.9 km) SSW. Retrieved 2019/06/25 12:44 UTC (3 hours ago):

TAF KPBI 251139Z 2512/2612 VRB03KT P6SM SKC FM251600 10008KT P6SM FEW030 SCT060 FM251900 10010KT P6SM SCT035 BKN060 FM260100 VRB03KT P6SM SCT035 SCT050